SCVD/ZAL METAR and TAF weather

Enter ICAO airport designator
Station Type Date Time Source
SCVD METAR 2019/10/15 19:00 UTC NOAA

SCVD 151900Z 32007KT 9999 FEW014 BKN033 OVC040 14/09 Q1018


Station Type Date Time Source
SCVD Decoded METAR 2019/10/15 19:00 UTC NOAA

Valdivia, Chile (SCVD) 39-37S 073-05W
Oct 15, 2019 - 03:00 PM EDT / 2019.10.15 1900 UTC
Wind: from the NW (320 degrees) at 8 MPH (7 KT):0
Visibility: greater than 7 mile(s):0
Sky conditions: overcast
Temperature: 57 F (14 C)
Dew Point: 48 F (9 C)
Relative Humidity: 71%
Pressure (altimeter): 30.06 in. Hg (1018 hPa)
ob: SCVD 151900Z 32007KT 9999 FEW014 BKN033 OVC040 14/09 Q1018
cycle: 19

Station Type Date Time Source
SCVD TAF 2019/10/15 12:00 UTC NOAA

TAF SCVD 151014Z 1512/1600 07004KT 9000 -SHRA FEW025 BKN040 TN09/1512Z TX17/1518Z
BECMG 1513/1515 36008KT 9999 SCT035
TEMPO 1518/1521 8000 -SHRA FEW020 BKN040

Example: see airport list